createdAt,value
2022-12-16T00:00:21.119Z,22.52
2022-12-16T00:02:49.637Z,22.50
2022-12-16T00:05:20.364Z,22.51
2022-12-16T00:07:48.915Z,22.52
2022-12-16T00:10:17.696Z,22.52
2022-12-16T00:12:46.295Z,22.51
2022-12-16T00:15:14.939Z,22.52
2022-12-16T00:17:43.478Z,22.50
2022-12-16T00:20:13.775Z,22.50
2022-12-16T00:22:43.984Z,22.52
2022-12-16T00:25:12.589Z,22.50
2022-12-16T00:27:41.023Z,22.50
2022-12-16T00:30:11.332Z,22.50
2022-12-16T00:32:40.178Z,22.49
2022-12-16T00:35:09.273Z,22.50
2022-12-16T00:37:38.005Z,22.49
2022-12-16T00:40:09.756Z,22.49
2022-12-16T00:42:38.245Z,22.49
2022-12-16T00:45:07.962Z,22.50
2022-12-16T00:47:40.948Z,22.50
2022-12-16T00:50:12.376Z,22.49
2022-12-16T00:52:41.053Z,22.48
2022-12-16T00:55:12.216Z,22.48
2022-12-16T00:57:40.805Z,22.49
2022-12-16T01:00:13.015Z,22.48
2022-12-16T01:02:42.162Z,22.48
2022-12-16T01:05:11.368Z,22.49
2022-12-16T01:07:39.883Z,22.48
2022-12-16T01:10:10.784Z,22.48
2022-12-16T01:12:39.395Z,22.47
2022-12-16T01:15:09.361Z,22.48
2022-12-16T01:17:37.991Z,22.48
2022-12-16T01:20:08.150Z,22.47
2022-12-16T01:22:37.319Z,22.47
2022-12-16T01:25:07.067Z,22.47
2022-12-16T01:27:37.043Z,22.46
2022-12-16T01:30:06.735Z,22.47
2022-12-16T01:32:35.273Z,22.48
2022-12-16T01:35:03.790Z,22.47
2022-12-16T01:37:32.693Z,22.48
2022-12-16T01:40:01.224Z,22.48
2022-12-16T01:42:31.347Z,22.47
2022-12-16T01:45:30.621Z,22.47
2022-12-16T01:48:01.111Z,22.46
2022-12-16T01:50:30.000Z,22.46
2022-12-16T01:53:00.093Z,22.45
2022-12-16T01:55:30.311Z,22.46
2022-12-16T01:58:04.121Z,22.46
2022-12-16T02:00:35.702Z,22.44
2022-12-16T02:03:04.815Z,22.46
2022-12-16T02:05:33.762Z,22.47
2022-12-16T02:08:04.241Z,22.46
2022-12-16T02:10:43.886Z,22.46
2022-12-16T02:13:20.701Z,22.46
2022-12-16T02:15:54.956Z,22.47
2022-12-16T02:18:28.712Z,22.48
2022-12-16T02:21:38.758Z,22.46
2022-12-16T02:24:39.210Z,22.46
2022-12-16T02:27:44.308Z,22.45
2022-12-16T02:30:49.051Z,22.45
2022-12-16T02:33:49.653Z,22.44
2022-12-16T02:36:30.460Z,22.45
2022-12-16T02:39:01.263Z,22.45
2022-12-16T02:41:38.169Z,22.45
2022-12-16T02:44:07.778Z,22.45
2022-12-16T02:46:42.763Z,22.46
2022-12-16T02:49:44.937Z,22.45
2022-12-16T02:52:13.502Z,22.44
2022-12-16T02:54:42.210Z,22.45
2022-12-16T02:57:26.309Z,22.44
2022-12-16T02:59:59.163Z,22.45
2022-12-16T03:02:32.111Z,22.44
2022-12-16T03:05:04.179Z,22.44
2022-12-16T03:07:33.844Z,22.44
2022-12-16T03:10:02.556Z,22.44
2022-12-16T03:12:31.012Z,22.43
2022-12-16T03:14:59.585Z,22.44
2022-12-16T03:17:29.564Z,22.45
2022-12-16T03:20:05.490Z,22.44
2022-12-16T03:22:35.435Z,22.44
2022-12-16T03:25:03.884Z,22.45
2022-12-16T03:27:35.833Z,22.43
2022-12-16T03:30:06.837Z,22.43
2022-12-16T03:32:39.216Z,22.45
2022-12-16T03:35:13.691Z,22.43
2022-12-16T03:37:42.403Z,22.43
2022-12-16T03:40:12.234Z,22.43
2022-12-16T03:42:40.726Z,22.43
2022-12-16T03:45:12.817Z,22.43
2022-12-16T03:47:42.805Z,22.43
2022-12-16T03:50:11.634Z,22.43
2022-12-16T03:52:40.233Z,22.44
2022-12-16T03:55:09.763Z,22.44
2022-12-16T03:57:38.317Z,22.44
2022-12-16T04:00:09.433Z,22.44
2022-12-16T04:02:38.203Z,22.43
2022-12-16T04:05:09.165Z,22.43
2022-12-16T04:07:37.736Z,22.42
2022-12-16T04:10:06.922Z,22.42
2022-12-16T04:12:53.157Z,22.42
2022-12-16T04:15:39.215Z,22.42
2022-12-16T04:18:25.167Z,22.41
2022-12-16T04:21:13.921Z,22.41
2022-12-16T04:24:05.403Z,22.42
2022-12-16T04:26:54.991Z,22.43
2022-12-16T04:29:23.581Z,22.43
2022-12-16T04:31:52.177Z,22.43
2022-12-16T04:34:29.623Z,22.43
2022-12-16T04:37:18.492Z,22.43
2022-12-16T04:40:04.643Z,22.42
2022-12-16T04:42:51.136Z,22.42
2022-12-16T04:45:37.364Z,22.41
2022-12-16T04:48:23.865Z,22.42
2022-12-16T04:51:10.008Z,22.41
2022-12-16T04:53:57.724Z,22.43
2022-12-16T04:56:43.813Z,22.42
2022-12-16T04:59:30.118Z,22.41
2022-12-16T05:02:16.072Z,22.41
2022-12-16T05:05:02.238Z,22.41
2022-12-16T05:07:48.207Z,22.41
2022-12-16T05:10:36.030Z,22.41
2022-12-16T05:13:21.903Z,22.41
2022-12-16T05:16:07.944Z,22.42
2022-12-16T05:18:53.926Z,22.41
2022-12-16T05:21:40.272Z,22.42
2022-12-16T05:24:26.934Z,22.42
2022-12-16T05:27:14.643Z,22.41
2022-12-16T05:30:00.563Z,22.41
2022-12-16T05:32:46.619Z,22.41
2022-12-16T05:35:32.887Z,22.41
2022-12-16T05:38:18.947Z,22.41
2022-12-16T05:41:05.014Z,22.41
2022-12-16T05:43:57.692Z,22.41
2022-12-16T05:46:43.466Z,22.41
2022-12-16T05:49:29.943Z,22.40
2022-12-16T05:52:15.994Z,22.42
2022-12-16T05:55:01.930Z,22.40
2022-12-16T05:57:47.838Z,22.40
2022-12-16T06:00:35.887Z,22.40
2022-12-16T06:03:21.905Z,22.39
2022-12-16T06:06:07.970Z,22.40
2022-12-16T06:08:53.801Z,22.39
2022-12-16T06:11:39.731Z,22.39
2022-12-16T06:14:25.963Z,22.40
2022-12-16T06:17:13.445Z,22.38
2022-12-16T06:19:58.538Z,22.39
2022-12-16T06:22:44.505Z,22.38
2022-12-16T06:25:30.467Z,22.39
2022-12-16T06:28:16.798Z,22.38
2022-12-16T06:31:02.945Z,22.39
2022-12-16T06:33:54.792Z,22.40
2022-12-16T06:36:41.389Z,22.38
2022-12-16T06:39:27.383Z,22.39
2022-12-16T06:42:13.558Z,22.39
2022-12-16T06:44:59.882Z,22.39
2022-12-16T06:47:45.765Z,22.40
2022-12-16T06:50:34.527Z,22.40
2022-12-16T06:53:20.827Z,22.40
2022-12-16T06:56:07.738Z,22.41
2022-12-16T06:58:50.538Z,22.39
2022-12-16T07:01:36.772Z,22.44
2022-12-16T07:04:27.574Z,22.50
2022-12-16T07:07:21.189Z,22.47
2022-12-16T07:10:07.370Z,22.46
2022-12-16T07:12:53.871Z,22.43
2022-12-16T07:15:40.130Z,22.46
2022-12-16T07:18:26.253Z,22.47
2022-12-16T07:21:12.522Z,22.46
2022-12-16T07:24:00.152Z,22.45
2022-12-16T07:26:46.326Z,22.47
2022-12-16T07:29:32.832Z,22.40
2022-12-16T07:32:19.104Z,22.43
2022-12-16T07:35:05.509Z,22.46
2022-12-16T07:37:52.019Z,22.49
2022-12-16T07:40:40.130Z,22.47
2022-12-16T07:43:25.860Z,22.44
2022-12-16T07:46:11.998Z,22.45
2022-12-16T07:48:57.727Z,22.42
2022-12-16T07:51:44.020Z,22.40
2022-12-16T07:54:29.782Z,22.42
2022-12-16T07:57:17.379Z,22.42
2022-12-16T08:00:03.287Z,22.41
2022-12-16T08:02:51.452Z,22.38
2022-12-16T08:05:37.532Z,22.34
2022-12-16T08:08:23.397Z,22.33
2022-12-16T08:11:09.526Z,22.31
2022-12-16T08:13:56.758Z,22.30
2022-12-16T08:16:43.086Z,22.30
2022-12-16T08:19:29.264Z,22.29
2022-12-16T08:22:15.369Z,22.41
2022-12-16T08:25:01.720Z,22.38
2022-12-16T08:27:47.606Z,22.41
2022-12-16T08:30:35.709Z,22.41
2022-12-16T08:33:21.684Z,22.45
2022-12-16T08:36:08.074Z,22.44
2022-12-16T08:38:54.834Z,22.43
2022-12-16T08:41:42.090Z,22.46
2022-12-16T08:44:28.197Z,22.47
2022-12-16T08:47:15.781Z,22.47
2022-12-16T08:50:02.528Z,22.46
2022-12-16T08:52:49.120Z,22.45
2022-12-16T08:55:35.578Z,22.41
2022-12-16T08:58:21.579Z,22.43
2022-12-16T09:01:22.284Z,22.44
2022-12-16T09:04:10.059Z,22.40
2022-12-16T09:06:56.011Z,22.39
2022-12-16T09:09:41.844Z,22.42
2022-12-16T09:12:24.266Z,22.43
2022-12-16T09:15:10.083Z,22.44
2022-12-16T09:17:55.852Z,22.42
2022-12-16T09:20:43.632Z,22.45
2022-12-16T09:23:29.724Z,22.44
2022-12-16T09:26:16.325Z,22.44
2022-12-16T09:29:02.086Z,22.43
2022-12-16T09:31:47.872Z,22.42
2022-12-16T09:34:33.684Z,22.39
2022-12-16T09:37:21.068Z,22.40
2022-12-16T09:40:06.836Z,22.43
2022-12-16T09:42:59.460Z,22.44
2022-12-16T09:45:58.147Z,22.46
2022-12-16T09:48:48.228Z,22.46
2022-12-16T09:51:34.223Z,22.47
2022-12-16T09:54:22.239Z,22.48
2022-12-16T09:57:10.824Z,22.48
2022-12-16T09:59:59.875Z,22.50
2022-12-16T10:02:51.550Z,22.53
2022-12-16T10:05:43.169Z,22.58
2022-12-16T10:08:37.158Z,22.52
2022-12-16T10:11:31.489Z,22.49
2022-12-16T10:14:20.603Z,22.39
2022-12-16T10:17:10.799Z,22.36
2022-12-16T10:20:16.723Z,22.33
2022-12-16T10:23:06.836Z,22.43
2022-12-16T10:25:57.862Z,22.46
2022-12-16T10:28:57.979Z,22.47
2022-12-16T10:31:44.566Z,22.48
2022-12-16T10:34:32.831Z,22.47
2022-12-16T10:37:21.237Z,22.46
2022-12-16T10:40:14.165Z,22.47
2022-12-16T10:43:05.864Z,22.42
2022-12-16T10:45:55.355Z,22.45
2022-12-16T10:48:56.288Z,22.46
2022-12-16T10:51:45.003Z,22.48
2022-12-16T10:54:50.707Z,22.48
2022-12-16T10:57:47.308Z,22.54
2022-12-16T11:00:35.317Z,22.58
2022-12-16T11:03:40.432Z,22.52
2022-12-16T11:06:26.956Z,22.50
2022-12-16T11:09:12.754Z,22.49
2022-12-16T11:11:58.834Z,22.48
2022-12-16T11:15:05.731Z,22.52
2022-12-16T11:17:53.887Z,22.55
2022-12-16T11:20:44.971Z,22.55
2022-12-16T11:23:37.290Z,22.55
2022-12-16T11:26:23.122Z,22.54
2022-12-16T11:29:27.781Z,22.53
2022-12-16T11:32:21.876Z,22.54
2022-12-16T11:35:13.572Z,22.52
2022-12-16T11:38:01.294Z,22.52
2022-12-16T11:40:47.447Z,22.53
2022-12-16T11:43:34.727Z,22.53
2022-12-16T11:46:24.002Z,22.53
2022-12-16T11:49:13.375Z,22.50
2022-12-16T11:52:21.225Z,22.52
2022-12-16T11:55:13.298Z,22.51
2022-12-16T11:58:04.032Z,22.52
2022-12-16T12:00:50.220Z,22.52
2022-12-16T12:03:39.973Z,22.50
2022-12-16T12:06:38.816Z,22.50
2022-12-16T12:09:28.497Z,22.48
2022-12-16T12:12:19.323Z,22.49
2022-12-16T12:15:15.834Z,22.48
2022-12-16T12:18:06.755Z,22.47
2022-12-16T12:21:03.256Z,22.49
2022-12-16T12:23:57.081Z,22.49
2022-12-16T12:26:46.022Z,22.47
2022-12-16T12:29:37.425Z,22.45
2022-12-16T12:32:33.597Z,22.48
2022-12-16T12:35:24.238Z,22.46
2022-12-16T12:38:13.584Z,22.48
2022-12-16T12:41:05.423Z,22.46
2022-12-16T12:44:00.634Z,22.46
2022-12-16T12:46:51.712Z,22.47
2022-12-16T12:49:46.846Z,22.47
2022-12-16T12:52:41.931Z,22.46
2022-12-16T12:55:32.245Z,22.47
2022-12-16T12:58:18.157Z,22.45
2022-12-16T13:01:07.160Z,22.45
2022-12-16T13:03:57.604Z,22.46
2022-12-16T13:06:43.851Z,22.43
2022-12-16T13:09:52.775Z,22.49
2022-12-16T13:12:47.851Z,22.49
2022-12-16T13:15:53.187Z,22.50
2022-12-16T13:18:44.528Z,22.49
2022-12-16T13:22:10.595Z,22.49
2022-12-16T13:25:00.557Z,22.48
2022-12-16T13:27:47.572Z,22.47
2022-12-16T13:30:42.452Z,22.45
2022-12-16T13:33:42.801Z,22.46
2022-12-16T13:36:28.999Z,22.48
2022-12-16T13:39:33.060Z,22.46
2022-12-16T13:42:19.323Z,22.46
2022-12-16T13:45:17.845Z,22.43
2022-12-16T13:48:43.280Z,22.42
2022-12-16T13:51:45.144Z,22.40
2022-12-16T13:54:32.560Z,22.39
2022-12-16T13:57:18.789Z,22.39
2022-12-16T14:00:04.762Z,22.40
2022-12-16T14:02:51.989Z,22.35
2022-12-16T14:05:40.941Z,22.42
2022-12-16T14:08:31.284Z,22.45
2022-12-16T14:11:21.042Z,22.45
2022-12-16T14:14:18.584Z,22.43
2022-12-16T14:17:08.864Z,22.45
2022-12-16T14:20:05.083Z,22.44
2022-12-16T14:23:06.076Z,22.43
2022-12-16T14:25:52.591Z,22.44
2022-12-16T14:28:45.670Z,22.43
2022-12-16T14:31:35.299Z,22.48
2022-12-16T14:34:21.897Z,22.48
2022-12-16T14:37:07.717Z,22.45
2022-12-16T14:39:57.566Z,22.46
2022-12-16T14:42:44.952Z,22.49
2022-12-16T14:45:45.513Z,22.46
2022-12-16T14:48:49.242Z,22.45
2022-12-16T14:51:47.153Z,22.44
2022-12-16T14:54:43.079Z,22.45
2022-12-16T14:57:32.527Z,22.45
2022-12-16T15:00:33.450Z,22.43
2022-12-16T15:03:25.596Z,22.43
2022-12-16T15:06:12.153Z,22.43
2022-12-16T15:09:06.340Z,22.42
2022-12-16T15:11:52.313Z,22.42
2022-12-16T15:14:42.612Z,22.39
2022-12-16T15:17:38.511Z,22.45
2022-12-16T15:20:35.056Z,22.43
2022-12-16T15:23:21.399Z,22.47
2022-12-16T15:26:09.008Z,22.42
2022-12-16T15:28:59.983Z,22.43
2022-12-16T15:31:50.914Z,22.42
2022-12-16T15:34:43.035Z,22.42
2022-12-16T15:37:42.230Z,22.40
2022-12-16T15:40:41.314Z,22.44
2022-12-16T15:43:43.618Z,22.42
2022-12-16T15:46:40.457Z,22.41
2022-12-16T15:49:34.939Z,22.43
2022-12-16T15:52:21.202Z,22.40
2022-12-16T15:55:13.350Z,22.39
2022-12-16T15:58:13.826Z,22.39
2022-12-16T16:01:00.091Z,22.39
2022-12-16T16:03:47.602Z,22.39
2022-12-16T16:06:35.680Z,22.44
2022-12-16T16:09:31.184Z,22.41
2022-12-16T16:12:18.212Z,22.42
2022-12-16T16:15:04.188Z,22.36
2022-12-16T16:17:50.538Z,22.37
2022-12-16T16:20:37.537Z,22.38
2022-12-16T16:23:23.430Z,22.39
2022-12-16T16:26:09.606Z,22.40
2022-12-16T16:28:57.073Z,22.39
2022-12-16T16:31:43.373Z,22.40
2022-12-16T16:34:29.866Z,22.39
2022-12-16T16:37:16.520Z,22.38
2022-12-16T16:40:02.868Z,22.39
2022-12-16T16:42:49.014Z,22.40
2022-12-16T16:45:36.762Z,22.43
2022-12-16T16:48:28.918Z,22.41
2022-12-16T16:51:15.353Z,22.41
2022-12-16T16:54:01.182Z,22.42
2022-12-16T16:56:47.610Z,22.40
2022-12-16T16:59:33.564Z,22.40
2022-12-16T17:02:20.967Z,22.41
2022-12-16T17:05:07.183Z,22.41
2022-12-16T17:07:54.093Z,22.41
2022-12-16T17:10:40.309Z,22.40
2022-12-16T17:13:27.518Z,22.40
2022-12-16T17:16:13.726Z,22.41
2022-12-16T17:19:01.220Z,22.40
2022-12-16T17:21:47.339Z,22.39
2022-12-16T17:24:33.734Z,22.40
2022-12-16T17:27:26.527Z,22.43
2022-12-16T17:30:13.209Z,22.41
2022-12-16T17:32:59.191Z,22.43
2022-12-16T17:35:46.614Z,22.43
2022-12-16T17:38:32.503Z,22.42
2022-12-16T17:41:18.604Z,22.42
2022-12-16T17:44:04.640Z,22.41
2022-12-16T17:46:50.751Z,22.43
2022-12-16T17:49:38.409Z,22.47
2022-12-16T17:52:25.948Z,22.47
2022-12-16T17:55:11.915Z,22.46
2022-12-16T17:57:57.624Z,22.44
2022-12-16T18:00:43.683Z,22.45
2022-12-16T18:03:29.898Z,22.45
2022-12-16T18:06:15.852Z,22.46
2022-12-16T18:09:03.770Z,22.43
2022-12-16T18:11:49.832Z,22.32
2022-12-16T18:14:35.638Z,21.94
2022-12-16T18:17:21.897Z,21.66
2022-12-16T18:20:07.588Z,21.60
2022-12-16T18:22:54.646Z,21.78
2022-12-16T18:25:42.420Z,22.18
2022-12-16T18:28:28.260Z,22.41
2022-12-16T18:31:14.371Z,22.44
2022-12-16T18:34:00.681Z,22.49
2022-12-16T18:36:46.660Z,22.48
2022-12-16T18:39:32.619Z,22.46
2022-12-16T18:42:19.800Z,22.48
2022-12-16T18:45:08.138Z,22.45
2022-12-16T18:47:53.978Z,22.46
2022-12-16T18:50:40.214Z,22.47
2022-12-16T18:53:26.035Z,22.47
2022-12-16T18:56:20.679Z,22.48
2022-12-16T18:59:08.082Z,22.46
2022-12-16T19:02:02.781Z,22.40
2022-12-16T19:04:51.140Z,22.39
2022-12-16T19:07:36.806Z,22.39
2022-12-16T19:10:23.643Z,22.37
2022-12-16T19:13:09.755Z,22.38
2022-12-16T19:15:56.998Z,22.39
2022-12-16T19:18:43.261Z,22.36
2022-12-16T19:21:29.233Z,22.36
2022-12-16T19:24:15.435Z,22.35
2022-12-16T19:27:01.501Z,22.36
2022-12-16T19:29:47.329Z,22.38
2022-12-16T19:32:31.306Z,22.39
2022-12-16T19:35:17.334Z,22.41
2022-12-16T19:38:03.357Z,22.43
2022-12-16T19:40:49.658Z,22.44
2022-12-16T19:43:35.761Z,22.41
2022-12-16T19:46:21.962Z,22.42
2022-12-16T19:49:09.198Z,22.44
2022-12-16T19:55:01.277Z,22.44
2022-12-16T19:57:47.233Z,22.46
2022-12-16T20:00:35.490Z,22.45
2022-12-16T20:03:21.864Z,22.43
2022-12-16T20:06:17.869Z,22.43
2022-12-16T20:09:04.489Z,22.43
2022-12-16T20:11:50.485Z,22.43
2022-12-16T20:14:38.049Z,22.42
2022-12-16T20:17:24.195Z,22.43
2022-12-16T20:20:10.086Z,22.43
2022-12-16T20:22:57.755Z,22.44
2022-12-16T20:25:43.867Z,22.43
2022-12-16T20:28:30.320Z,22.43
2022-12-16T20:31:19.474Z,22.43
2022-12-16T20:34:05.320Z,22.42
2022-12-16T20:36:51.431Z,22.42
2022-12-16T20:39:38.934Z,22.42
2022-12-16T20:42:24.988Z,22.43
2022-12-16T20:45:10.845Z,22.43
2022-12-16T20:47:57.205Z,22.43
2022-12-16T20:50:43.220Z,22.42
2022-12-16T20:53:29.094Z,22.43
2022-12-16T20:56:19.802Z,22.43
2022-12-16T20:59:07.409Z,22.44
2022-12-16T21:04:59.082Z,22.43
2022-12-16T21:07:45.189Z,22.43
2022-12-16T21:10:31.351Z,22.40
2022-12-16T21:13:26.388Z,22.43
2022-12-16T21:16:12.459Z,22.44
2022-12-16T21:18:58.247Z,22.42
2022-12-16T21:21:44.502Z,22.42
2022-12-16T21:24:30.436Z,22.42
2022-12-16T21:27:16.655Z,22.43
2022-12-16T21:30:04.110Z,22.42
2022-12-16T21:32:50.460Z,22.42
2022-12-16T21:35:39.244Z,22.42
2022-12-16T21:38:27.977Z,22.42
2022-12-16T21:41:13.894Z,22.42
2022-12-16T21:43:59.877Z,22.42
2022-12-16T21:46:47.196Z,22.41
2022-12-16T21:49:32.815Z,22.41
2022-12-16T21:52:22.098Z,22.42
2022-12-16T21:55:08.575Z,22.41
2022-12-16T21:57:56.584Z,22.41
2022-12-16T22:00:42.882Z,22.42
2022-12-16T22:03:30.538Z,22.43
2022-12-16T22:06:17.789Z,22.44
2022-12-16T22:09:03.805Z,22.44
2022-12-16T22:11:49.943Z,22.43
2022-12-16T22:14:35.813Z,22.43
2022-12-16T22:17:21.838Z,22.41
2022-12-16T22:20:09.614Z,22.43
2022-12-16T22:22:57.652Z,22.43
2022-12-16T22:25:43.769Z,22.41
2022-12-16T22:28:29.631Z,22.42
2022-12-16T22:31:16.435Z,22.40
2022-12-16T22:34:02.630Z,22.42
2022-12-16T22:36:49.991Z,22.41
2022-12-16T22:39:39.973Z,22.41
2022-12-16T22:42:28.621Z,22.42
2022-12-16T22:45:14.756Z,22.41
2022-12-16T22:48:00.921Z,22.42
2022-12-16T22:50:47.822Z,22.44
2022-12-16T22:53:35.387Z,22.41
2022-12-16T22:56:21.487Z,22.41
2022-12-16T22:59:08.319Z,22.38
2022-12-16T23:01:54.640Z,22.38
2022-12-16T23:04:43.231Z,22.38
2022-12-16T23:07:29.035Z,22.37
2022-12-16T23:10:16.556Z,22.34
2022-12-16T23:13:05.106Z,22.35
2022-12-16T23:15:51.298Z,22.34
2022-12-16T23:18:38.345Z,22.35
2022-12-16T23:21:32.252Z,22.36
2022-12-16T23:24:18.680Z,22.36
2022-12-16T23:27:06.141Z,22.36
2022-12-16T23:29:52.147Z,22.36
2022-12-16T23:32:30.477Z,22.43
2022-12-16T23:32:38.152Z,22.35
2022-12-16T23:35:25.141Z,22.34
2022-12-16T23:38:18.181Z,22.37
2022-12-16T23:41:04.188Z,22.37
2022-12-16T23:43:51.636Z,22.39
2022-12-16T23:46:38.288Z,22.38
2022-12-16T23:49:24.152Z,22.36
2022-12-16T23:52:10.000Z,22.36
2022-12-16T23:54:55.896Z,22.35
2022-12-16T23:57:42.184Z,22.36
